Uni-arise — 3FSV7 — position and weather

sailwx.info

Track history (hours):
 
Tides and Currents Weather Stations Pressure Air Temp Water Temp Dewpoint Dewpoint Depression Visibility Wind Speed Wind Dir Waves Ship Positions

Uni-arise

Last reported at 2015-Mar-06 20:33 UTC. Time now 2015-Mar-06 21:30 UTC.
Position N 19°44' E 109°12'.

Length 165 m; draft 5.9 m.

Type: Cargo ship. MMSI: 351608000.

Date/timePositionNaut miles runAvg speedWind from/ knotsBaromVisibWave heightAir tempDewpointWater temp
2015-Mar-06 20:33N 19°44' E 109°12'0 0.0
2015-Mar-06 19:28N 19°44' E 109°12'0 0.0
2015-Mar-06 18:16N 19°44' E 109°12'0 0.0
2015-Mar-06 17:31N 19°44' E 109°12'0 0.0
2015-Mar-06 16:13N 19°44' E 109°12'0 0.0
2015-Mar-06 15:31N 19°44' E 109°12'0 0.0
2015-Mar-06 14:28N 19°44' E 109°12'0 0.0
2015-Mar-06 13:16N 19°44' E 109°12'0 0.0
2015-Mar-06 12:33N 19°44' E 109°12'4 3.8
2015-Mar-06 11:24N 19°42' E 109°08'5 5.7
2015-Mar-06 10:33N 19°46' E 109°05'3 2.7
2015-Mar-06 09:33N 19°48' E 109°04'74 8.9
2015-Mar-06 01:17N 20°11' E 110°18'25214.2
2015-Mar-05 07:33N 22°03' E 114°20'2010.1
2015-Mar-05 05:33N 22°18' E 114°06'3 2.7
2015-Mar-05 04:33N 22°20' E 114°08'0 0.0
2015-Mar-05 03:33N 22°20' E 114°08'0 0.0
2015-Mar-05 02:33N 22°20' E 114°08'0 0.0
2015-Mar-05 01:33N 22°20' E 114°08'0 0.0
2015-Mar-05 00:33N 22°20' E 114°08'0 0.1
2015-Mar-04 23:33N 22°20' E 114°08'0 0.1
2015-Mar-04 22:33N 22°20' E 114°08'0 0.1
2015-Mar-04 21:33N 22°20' E 114°08'0 0.1
2015-Mar-04 20:33N 22°20' E 114°08'0 0.0
2015-Mar-04 19:33N 22°20' E 114°08'0 0.0
2015-Mar-04 18:33N 22°20' E 114°08'0 0.1
2015-Mar-04 17:33N 22°20' E 114°08'3 2.6
2015-Mar-04 16:33N 22°18' E 114°06'12 9.5
2015-Mar-04 15:21N 22°09' E 114°14'7 8.6
2015-Mar-04 14:30N 22°10' E 114°22'  
2015-Mar-01 05:04N 20°11' E 110°23'5 9.5
2015-Mar-01 04:33N 20°10' E 110°18'  
2015-Feb-26 09:32N 20°10' E 110°08'1110.7
2015-Feb-26 08:32N 20°12' E 110°19'25514.1
2015-Feb-25 14:32N 22°05' E 114°23'1412.0
2015-Feb-25 13:22N 22°12' E 114°10'8 9.7
2015-Feb-25 12:33N 22°19' E 114°07'1 0.9
2015-Feb-25 11:15N 22°20' E 114°08'0 0.0
2015-Feb-25 10:33N 22°20' E 114°08'0 0.0
2015-Feb-25 07:30N 22°20' E 114°08'0 0.0
2015-Feb-25 05:21N 22°20' E 114°08'0 0.0
2015-Feb-25 03:24N 22°20' E 114°08'0 0.0
2015-Feb-25 02:18N 22°20' E 114°08'0 0.0
2015-Feb-25 01:30N 22°20' E 114°08'0 0.0
2015-Feb-25 00:24N 22°20' E 114°08'0 0.3
2015-Feb-24 23:33N 22°20' E 114°07'8 7.4
2015-Feb-24 22:30N 22°13' E 114°10'8 8.1
2015-Feb-24 21:32N 22°08' E 114°17'1010.4
2015-Feb-24 20:33N 22°13' E 114°27'  
Track history (hours):
 
Tides and Currents Weather Stations Pressure Air Temp Water Temp Dewpoint Dewpoint Depression Visibility Wind Speed Wind Dir Waves Ship Positions

Uni-arise

Last reported at 2015-Mar-06 20:33 UTC. Time now 2015-Mar-06 21:30 UTC.
Position N 19°44' E 109°12'.

Length 165 m; draft 5.9 m.

Type: Cargo ship. MMSI: 351608000.

Date/timePositionNaut miles runAvg speedWind from/ knotsBaromVisibWave heightAir tempDewpointWater temp
2015-Mar-06 20:33N 19°44' E 109°12'0 0.0
2015-Mar-06 19:28N 19°44' E 109°12'0 0.0
2015-Mar-06 18:16N 19°44' E 109°12'0 0.0
2015-Mar-06 17:31N 19°44' E 109°12'0 0.0
2015-Mar-06 16:13N 19°44' E 109°12'0 0.0
2015-Mar-06 15:31N 19°44' E 109°12'0 0.0
2015-Mar-06 14:28N 19°44' E 109°12'0 0.0
2015-Mar-06 13:16N 19°44' E 109°12'0 0.0
2015-Mar-06 12:33N 19°44' E 109°12'4 3.8
2015-Mar-06 11:24N 19°42' E 109°08'5 5.7
2015-Mar-06 10:33N 19°46' E 109°05'3 2.7
2015-Mar-06 09:33N 19°48' E 109°04'74 8.9
2015-Mar-06 01:17N 20°11' E 110°18'25214.2
2015-Mar-05 07:33N 22°03' E 114°20'2010.1
2015-Mar-05 05:33N 22°18' E 114°06'3 2.7
2015-Mar-05 04:33N 22°20' E 114°08'0 0.0
2015-Mar-05 03:33N 22°20' E 114°08'0 0.0
2015-Mar-05 02:33N 22°20' E 114°08'0 0.0
2015-Mar-05 01:33N 22°20' E 114°08'0 0.0
2015-Mar-05 00:33N 22°20' E 114°08'0 0.1
2015-Mar-04 23:33N 22°20' E 114°08'0 0.1
2015-Mar-04 22:33N 22°20' E 114°08'0 0.1
2015-Mar-04 21:33N 22°20' E 114°08'0 0.1
2015-Mar-04 20:33N 22°20' E 114°08'0 0.0
2015-Mar-04 19:33N 22°20' E 114°08'0 0.0
2015-Mar-04 18:33N 22°20' E 114°08'0 0.1
2015-Mar-04 17:33N 22°20' E 114°08'3 2.6
2015-Mar-04 16:33N 22°18' E 114°06'12 9.5
2015-Mar-04 15:21N 22°09' E 114°14'7 8.6
2015-Mar-04 14:30N 22°10' E 114°22'  
2015-Mar-01 05:04N 20°11' E 110°23'5 9.5
2015-Mar-01 04:33N 20°10' E 110°18'  
2015-Feb-26 09:32N 20°10' E 110°08'1110.7
2015-Feb-26 08:32N 20°12' E 110°19'25514.1
2015-Feb-25 14:32N 22°05' E 114°23'1412.0
2015-Feb-25 13:22N 22°12' E 114°10'8 9.7
2015-Feb-25 12:33N 22°19' E 114°07'1 0.9
2015-Feb-25 11:15N 22°20' E 114°08'0 0.0
2015-Feb-25 10:33N 22°20' E 114°08'0 0.0
2015-Feb-25 07:30N 22°20' E 114°08'0 0.0
2015-Feb-25 05:21N 22°20' E 114°08'0 0.0
2015-Feb-25 03:24N 22°20' E 114°08'0 0.0
2015-Feb-25 02:18N 22°20' E 114°08'0 0.0
2015-Feb-25 01:30N 22°20' E 114°08'0 0.0
2015-Feb-25 00:24N 22°20' E 114°08'0 0.3
2015-Feb-24 23:33N 22°20' E 114°07'8 7.4
2015-Feb-24 22:30N 22°13' E 114°10'8 8.1
2015-Feb-24 21:32N 22°08' E 114°17'1010.4
2015-Feb-24 20:33N 22°13' E 114°27'  

Dump ship's entire track history